Akk, Virginia
Current Conditions -  °F | °C
As of 5:15 PM on Sunday 23 Nov 2014 (Local Time) from KFYJ Reporting Station
Overcast Overcast  
Wind Chill: 13°   Ceiling: 4400
Heat Index: 13°   Visibility: 10mi
Dew Point:   Wind: 6mph
Humidity: 72%   Direction: 100°E
Pressure: 30.1"   Gusts: NA
Location:  37.4383°N, 76.5764°W
Report Text: KFYJ 232215Z AUTO 10005KT 10SM SCT032 BKN044 OVC050 13/08 A3010 RMK AO2 T01270077
Loading
Personal Weather Stations






























Interactive Weather Map New forecast layout! Learn more

10-Day Weather Forecast

Advertisements
Track Severe Weather on mobile